sensor_id;sensor_type;location;lat;lon;timestamp;P1;durP1;ratioP1;P2;durP2;ratioP2
59062;SDS011;44851;45.648;9.004;2023-03-01T00:00:39;27.57;;;17.83;;
59062;SDS011;44851;45.648;9.004;2023-03-01T00:03:05;30.43;;;18.87;;
59062;SDS011;44851;45.648;9.004;2023-03-01T00:05:31;32.10;;;18.47;;
59062;SDS011;44851;45.648;9.004;2023-03-01T00:07:57;30.20;;;17.27;;
59062;SDS011;44851;45.648;9.004;2023-03-01T00:10:22;29.37;;;17.07;;
59062;SDS011;44851;45.648;9.004;2023-03-01T00:12:48;25.97;;;16.60;;
59062;SDS011;44851;45.648;9.004;2023-03-01T00:15:13;26.93;;;17.57;;
59062;SDS011;44851;45.648;9.004;2023-03-01T00:17:39;23.50;;;15.13;;
59062;SDS011;44851;45.648;9.004;2023-03-01T00:20:04;26.30;;;16.30;;
59062;SDS011;44851;45.648;9.004;2023-03-01T00:22:35;27.43;;;17.27;;
59062;SDS011;44851;45.648;9.004;2023-03-01T00:25:01;30.70;;;19.77;;
59062;SDS011;44851;45.648;9.004;2023-03-01T00:27:26;28.10;;;17.13;;
59062;SDS011;44851;45.648;9.004;2023-03-01T00:29:52;28.70;;;18.70;;
59062;SDS011;44851;45.648;9.004;2023-03-01T00:32:17;28.67;;;17.97;;
59062;SDS011;44851;45.648;9.004;2023-03-01T00:34:43;31.50;;;19.27;;
59062;SDS011;44851;45.648;9.004;2023-03-01T00:37:18;29.43;;;18.80;;
59062;SDS011;44851;45.648;9.004;2023-03-01T00:39:45;29.77;;;18.83;;
59062;SDS011;44851;45.648;9.004;2023-03-01T00:42:11;31.07;;;19.13;;
59062;SDS011;44851;45.648;9.004;2023-03-01T00:44:36;32.50;;;19.50;;
59062;SDS011;44851;45.648;9.004;2023-03-01T00:47:02;33.43;;;19.87;;
59062;SDS011;44851;45.648;9.004;2023-03-01T00:49:27;30.97;;;18.77;;
59062;SDS011;44851;45.648;9.004;2023-03-01T00:51:53;28.63;;;18.33;;
59062;SDS011;44851;45.648;9.004;2023-03-01T00:54:18;29.37;;;19.13;;
59062;SDS011;44851;45.648;9.004;2023-03-01T00:56:44;26.43;;;17.93;;
59062;SDS011;44851;45.648;9.004;2023-03-01T00:59:09;34.73;;;19.13;;
59062;SDS011;44851;45.648;9.004;2023-03-01T01:01:35;32.77;;;18.90;;
59062;SDS011;44851;45.648;9.004;2023-03-01T01:04:01;33.80;;;17.77;;
59062;SDS011;44851;45.648;9.004;2023-03-01T01:06:30;29.03;;;17.67;;
59062;SDS011;44851;45.648;9.004;2023-03-01T01:08:58;31.23;;;19.87;;
59062;SDS011;44851;45.648;9.004;2023-03-01T01:11:25;31.40;;;17.90;;
59062;SDS011;44851;45.648;9.004;2023-03-01T01:13:51;25.70;;;17.00;;
59062;SDS011;44851;45.648;9.004;2023-03-01T01:16:18;28.60;;;17.70;;
59062;SDS011;44851;45.648;9.004;2023-03-01T01:18:46;30.63;;;17.13;;
59062;SDS011;44851;45.648;9.004;2023-03-01T01:21:13;30.20;;;17.50;;
59062;SDS011;44851;45.648;9.004;2023-03-01T01:23:43;28.80;;;18.23;;
59062;SDS011;44851;45.648;9.004;2023-03-01T01:26:11;30.23;;;17.83;;
59062;SDS011;44851;45.648;9.004;2023-03-01T01:28:39;29.93;;;17.83;;
59062;SDS011;44851;45.648;9.004;2023-03-01T01:31:04;27.63;;;17.30;;
59062;SDS011;44851;45.648;9.004;2023-03-01T01:33:31;28.50;;;18.37;;
59062;SDS011;44851;45.648;9.004;2023-03-01T01:35:57;28.70;;;18.33;;
59062;SDS011;44851;45.648;9.004;2023-03-01T01:38:22;27.53;;;17.93;;
59062;SDS011;44851;45.648;9.004;2023-03-01T01:40:48;29.27;;;18.57;;
59062;SDS011;44851;45.648;9.004;2023-03-01T01:43:23;31.17;;;19.10;;
59062;SDS011;44851;45.648;9.004;2023-03-01T01:45:52;28.37;;;17.07;;
59062;SDS011;44851;45.648;9.004;2023-03-01T01:48:22;27.43;;;17.87;;
59062;SDS011;44851;45.648;9.004;2023-03-01T01:50:55;31.00;;;18.77;;
59062;SDS011;44851;45.648;9.004;2023-03-01T01:53:24;29.30;;;17.67;;
59062;SDS011;44851;45.648;9.004;2023-03-01T01:55:54;32.73;;;19.77;;
59062;SDS011;44851;45.648;9.004;2023-03-01T01:58:24;29.30;;;17.97;;
59062;SDS011;44851;45.648;9.004;2023-03-01T02:00:52;31.90;;;18.17;;
59062;SDS011;44851;45.648;9.004;2023-03-01T02:03:20;28.00;;;17.80;;
59062;SDS011;44851;45.648;9.004;2023-03-01T02:05:56;28.47;;;17.77;;
59062;SDS011;44851;45.648;9.004;2023-03-01T02:08:23;30.87;;;18.43;;
59062;SDS011;44851;45.648;9.004;2023-03-01T02:10:51;38.17;;;19.93;;
59062;SDS011;44851;45.648;9.004;2023-03-01T02:13:19;29.50;;;18.87;;
59062;SDS011;44851;45.648;9.004;2023-03-01T02:15:45;28.77;;;18.33;;
59062;SDS011;44851;45.648;9.004;2023-03-01T02:18:11;32.90;;;19.07;;
59062;SDS011;44851;45.648;9.004;2023-03-01T02:20:51;30.63;;;17.33;;
59062;SDS011;44851;45.648;9.004;2023-03-01T02:23:39;31.93;;;18.93;;
59062;SDS011;44851;45.648;9.004;2023-03-01T02:26:23;33.10;;;20.30;;
59062;SDS011;44851;45.648;9.004;2023-03-01T02:29:02;32.30;;;19.00;;
59062;SDS011;44851;45.648;9.004;2023-03-01T02:31:27;29.27;;;16.67;;
59062;SDS011;44851;45.648;9.004;2023-03-01T02:34:16;30.47;;;17.57;;
59062;SDS011;44851;45.648;9.004;2023-03-01T02:36:45;30.33;;;18.07;;
59062;SDS011;44851;45.648;9.004;2023-03-01T02:39:36;31.70;;;18.73;;
59062;SDS011;44851;45.648;9.004;2023-03-01T02:42:07;29.17;;;17.60;;
59062;SDS011;44851;45.648;9.004;2023-03-01T02:44:38;28.63;;;17.37;;
59062;SDS011;44851;45.648;9.004;2023-03-01T02:47:04;27.73;;;17.30;;
59062;SDS011;44851;45.648;9.004;2023-03-01T02:49:32;29.23;;;17.83;;
59062;SDS011;44851;45.648;9.004;2023-03-01T02:57:19;28.33;;;16.53;;
59062;SDS011;44851;45.648;9.004;2023-03-01T02:59:47;25.87;;;16.37;;
59062;SDS011;44851;45.648;9.004;2023-03-01T03:02:20;27.63;;;16.60;;
59062;SDS011;44851;45.648;9.004;2023-03-01T03:05:11;28.40;;;17.10;;
59062;SDS011;44851;45.648;9.004;2023-03-01T03:07:41;27.17;;;16.23;;
59062;SDS011;44851;45.648;9.004;2023-03-01T03:10:10;27.77;;;17.50;;
59062;SDS011;44851;45.648;9.004;2023-03-01T03:12:38;28.17;;;16.33;;
59062;SDS011;44851;45.648;9.004;2023-03-01T03:15:04;26.67;;;17.93;;
59062;SDS011;44851;45.648;9.004;2023-03-01T03:17:34;26.37;;;16.80;;
59062;SDS011;44851;45.648;9.004;2023-03-01T03:20:04;31.37;;;18.33;;
59062;SDS011;44851;45.648;9.004;2023-03-01T03:22:31;28.60;;;17.87;;
59062;SDS011;44851;45.648;9.004;2023-03-01T03:24:59;29.30;;;16.53;;
59062;SDS011;44851;45.648;9.004;2023-03-01T03:27:24;26.63;;;17.17;;
59062;SDS011;44851;45.648;9.004;2023-03-01T03:29:50;27.33;;;16.07;;
59062;SDS011;44851;45.648;9.004;2023-03-01T03:32:15;23.60;;;15.43;;
59062;SDS011;44851;45.648;9.004;2023-03-01T03:34:41;25.93;;;16.77;;
59062;SDS011;44851;45.648;9.004;2023-03-01T03:37:06;28.73;;;17.90;;
59062;SDS011;44851;45.648;9.004;2023-03-01T03:39:51;27.07;;;17.70;;
59062;SDS011;44851;45.648;9.004;2023-03-01T03:42:20;26.33;;;15.57;;
59062;SDS011;44851;45.648;9.004;2023-03-01T03:44:46;28.43;;;17.97;;
59062;SDS011;44851;45.648;9.004;2023-03-01T03:47:12;26.20;;;16.27;;
59062;SDS011;44851;45.648;9.004;2023-03-01T03:49:37;23.97;;;16.03;;
59062;SDS011;44851;45.648;9.004;2023-03-01T03:52:03;30.40;;;18.83;;
59062;SDS011;44851;45.648;9.004;2023-03-01T03:54:28;26.13;;;16.37;;
59062;SDS011;44851;45.648;9.004;2023-03-01T03:56:53;27.83;;;16.73;;
59062;SDS011;44851;45.648;9.004;2023-03-01T03:59:19;26.47;;;17.80;;
59062;SDS011;44851;45.648;9.004;2023-03-01T04:01:44;27.37;;;17.47;;
59062;SDS011;44851;45.648;9.004;2023-03-01T04:04:10;25.50;;;16.00;;
59062;SDS011;44851;45.648;9.004;2023-03-01T04:06:35;25.50;;;16.33;;
59062;SDS011;44851;45.648;9.004;2023-03-01T04:09:01;27.57;;;17.70;;
59062;SDS011;44851;45.648;9.004;2023-03-01T04:11:30;25.20;;;16.43;;
59062;SDS011;44851;45.648;9.004;2023-03-01T04:13:56;27.93;;;17.73;;
59062;SDS011;44851;45.648;9.004;2023-03-01T04:16:23;29.03;;;18.10;;
59062;SDS011;44851;45.648;9.004;2023-03-01T04:18:49;28.87;;;17.00;;
59062;SDS011;44851;45.648;9.004;2023-03-01T04:21:15;26.80;;;17.27;;
59062;SDS011;44851;45.648;9.004;2023-03-01T04:23:40;25.90;;;17.30;;
59062;SDS011;44851;45.648;9.004;2023-03-01T04:26:06;25.80;;;17.83;;
59062;SDS011;44851;45.648;9.004;2023-03-01T04:31:02;24.33;;;15.43;;
59062;SDS011;44851;45.648;9.004;2023-03-01T04:33:59;25.57;;;16.40;;
59062;SDS011;44851;45.648;9.004;2023-03-01T04:36:25;27.13;;;16.07;;
59062;SDS011;44851;45.648;9.004;2023-03-01T04:38:52;27.93;;;17.20;;
59062;SDS011;44851;45.648;9.004;2023-03-01T04:41:18;27.43;;;17.17;;
59062;SDS011;44851;45.648;9.004;2023-03-01T04:43:45;26.43;;;17.10;;
59062;SDS011;44851;45.648;9.004;2023-03-01T04:46:12;24.80;;;15.03;;
59062;SDS011;44851;45.648;9.004;2023-03-01T04:48:39;25.60;;;15.33;;
59062;SDS011;44851;45.648;9.004;2023-03-01T04:51:06;29.33;;;16.67;;
59062;SDS011;44851;45.648;9.004;2023-03-01T04:53:32;29.60;;;17.57;;
59062;SDS011;44851;45.648;9.004;2023-03-01T04:55:58;26.73;;;17.13;;
59062;SDS011;44851;45.648;9.004;2023-03-01T04:58:24;25.03;;;16.10;;
59062;SDS011;44851;45.648;9.004;2023-03-01T05:00:51;28.70;;;17.40;;
59062;SDS011;44851;45.648;9.004;2023-03-01T05:03:17;26.43;;;16.07;;
59062;SDS011;44851;45.648;9.004;2023-03-01T05:05:43;25.17;;;15.80;;
59062;SDS011;44851;45.648;9.004;2023-03-01T05:08:10;25.87;;;15.67;;
59062;SDS011;44851;45.648;9.004;2023-03-01T05:10:43;30.23;;;16.77;;
59062;SDS011;44851;45.648;9.004;2023-03-01T05:13:13;29.87;;;16.00;;
59062;SDS011;44851;45.648;9.004;2023-03-01T05:15:45;29.37;;;17.43;;
59062;SDS011;44851;45.648;9.004;2023-03-01T05:18:12;25.07;;;15.60;;
59062;SDS011;44851;45.648;9.004;2023-03-01T05:20:38;25.80;;;15.57;;
59062;SDS011;44851;45.648;9.004;2023-03-01T05:23:04;25.37;;;15.47;;
59062;SDS011;44851;45.648;9.004;2023-03-01T05:25:30;28.93;;;16.70;;
59062;SDS011;44851;45.648;9.004;2023-03-01T05:27:58;27.27;;;16.23;;
59062;SDS011;44851;45.648;9.004;2023-03-01T05:30:28;25.57;;;16.63;;
59062;SDS011;44851;45.648;9.004;2023-03-01T05:32:53;27.17;;;16.13;;
59062;SDS011;44851;45.648;9.004;2023-03-01T05:35:20;26.87;;;16.40;;
59062;SDS011;44851;45.648;9.004;2023-03-01T05:37:47;26.17;;;16.20;;
59062;SDS011;44851;45.648;9.004;2023-03-01T05:40:21;26.13;;;15.83;;
59062;SDS011;44851;45.648;9.004;2023-03-01T05:42:49;26.63;;;16.77;;
59062;SDS011;44851;45.648;9.004;2023-03-01T05:45:18;24.67;;;16.33;;
59062;SDS011;44851;45.648;9.004;2023-03-01T05:47:45;27.17;;;17.07;;
59062;SDS011;44851;45.648;9.004;2023-03-01T05:50:22;23.67;;;15.67;;
59062;SDS011;44851;45.648;9.004;2023-03-01T05:53:00;23.97;;;16.40;;
59062;SDS011;44851;45.648;9.004;2023-03-01T05:55:28;25.10;;;15.67;;
59062;SDS011;44851;45.648;9.004;2023-03-01T05:57:55;29.63;;;16.77;;
59062;SDS011;44851;45.648;9.004;2023-03-01T06:00:22;27.87;;;16.57;;
59062;SDS011;44851;45.648;9.004;2023-03-01T06:02:48;28.17;;;17.37;;
59062;SDS011;44851;45.648;9.004;2023-03-01T06:05:14;28.67;;;16.60;;
59062;SDS011;44851;45.648;9.004;2023-03-01T06:07:40;27.57;;;16.63;;
59062;SDS011;44851;45.648;9.004;2023-03-01T06:10:06;27.30;;;16.17;;
59062;SDS011;44851;45.648;9.004;2023-03-01T06:12:33;30.00;;;17.87;;
59062;SDS011;44851;45.648;9.004;2023-03-01T06:15:01;25.93;;;17.53;;
59062;SDS011;44851;45.648;9.004;2023-03-01T06:17:29;27.70;;;17.60;;
59062;SDS011;44851;45.648;9.004;2023-03-01T06:19:55;26.37;;;16.27;;
59062;SDS011;44851;45.648;9.004;2023-03-01T06:22:20;27.50;;;17.10;;
59062;SDS011;44851;45.648;9.004;2023-03-01T06:24:46;27.03;;;17.17;;
59062;SDS011;44851;45.648;9.004;2023-03-01T06:27:11;27.00;;;16.47;;
59062;SDS011;44851;45.648;9.004;2023-03-01T06:29:36;28.57;;;16.47;;
59062;SDS011;44851;45.648;9.004;2023-03-01T06:32:02;26.17;;;15.97;;
59062;SDS011;44851;45.648;9.004;2023-03-01T06:34:28;23.77;;;16.50;;
59062;SDS011;44851;45.648;9.004;2023-03-01T06:36:53;29.77;;;17.67;;
59062;SDS011;44851;45.648;9.004;2023-03-01T06:39:19;26.17;;;16.60;;
59062;SDS011;44851;45.648;9.004;2023-03-01T06:41:44;25.87;;;17.23;;
59062;SDS011;44851;45.648;9.004;2023-03-01T06:44:10;27.53;;;15.63;;
59062;SDS011;44851;45.648;9.004;2023-03-01T06:46:35;28.33;;;17.93;;
59062;SDS011;44851;45.648;9.004;2023-03-01T06:49:01;29.53;;;17.27;;
59062;SDS011;44851;45.648;9.004;2023-03-01T06:51:29;27.90;;;18.37;;
59062;SDS011;44851;45.648;9.004;2023-03-01T06:53:55;27.17;;;18.43;;
59062;SDS011;44851;45.648;9.004;2023-03-01T06:56:20;29.70;;;18.90;;
59062;SDS011;44851;45.648;9.004;2023-03-01T06:58:45;28.53;;;18.73;;
59062;SDS011;44851;45.648;9.004;2023-03-01T07:01:11;29.90;;;17.77;;
59062;SDS011;44851;45.648;9.004;2023-03-01T07:03:36;31.97;;;18.87;;
59062;SDS011;44851;45.648;9.004;2023-03-01T07:06:02;32.10;;;18.07;;
59062;SDS011;44851;45.648;9.004;2023-03-01T07:08:27;31.37;;;18.90;;
59062;SDS011;44851;45.648;9.004;2023-03-01T07:10:56;30.80;;;18.67;;
59062;SDS011;44851;45.648;9.004;2023-03-01T07:13:22;34.57;;;19.33;;
59062;SDS011;44851;45.648;9.004;2023-03-01T07:15:48;33.13;;;18.93;;
59062;SDS011;44851;45.648;9.004;2023-03-01T07:18:13;33.00;;;19.70;;
59062;SDS011;44851;45.648;9.004;2023-03-01T07:20:39;34.97;;;19.80;;
59062;SDS011;44851;45.648;9.004;2023-03-01T07:23:05;33.17;;;19.53;;
59062;SDS011;44851;45.648;9.004;2023-03-01T07:25:30;31.07;;;19.30;;
59062;SDS011;44851;45.648;9.004;2023-03-01T07:27:57;27.30;;;18.20;;
59062;SDS011;44851;45.648;9.004;2023-03-01T07:30:23;36.07;;;20.40;;
59062;SDS011;44851;45.648;9.004;2023-03-01T07:32:50;33.93;;;21.53;;
59062;SDS011;44851;45.648;9.004;2023-03-01T07:35:16;32.43;;;19.97;;
59062;SDS011;44851;45.648;9.004;2023-03-01T07:37:42;35.20;;;20.17;;
59062;SDS011;44851;45.648;9.004;2023-03-01T07:40:08;33.90;;;20.93;;
59062;SDS011;44851;45.648;9.004;2023-03-01T07:42:34;35.63;;;21.17;;
59062;SDS011;44851;45.648;9.004;2023-03-01T07:44:59;35.67;;;22.10;;
59062;SDS011;44851;45.648;9.004;2023-03-01T07:47:24;35.40;;;21.83;;
59062;SDS011;44851;45.648;9.004;2023-03-01T07:49:50;36.37;;;21.77;;
59062;SDS011;44851;45.648;9.004;2023-03-01T07:52:16;35.17;;;22.53;;
59062;SDS011;44851;45.648;9.004;2023-03-01T07:54:43;34.03;;;21.93;;
59062;SDS011;44851;45.648;9.004;2023-03-01T07:57:11;42.13;;;20.50;;
59062;SDS011;44851;45.648;9.004;2023-03-01T07:59:37;35.03;;;23.80;;
59062;SDS011;44851;45.648;9.004;2023-03-01T08:02:02;37.60;;;23.50;;
59062;SDS011;44851;45.648;9.004;2023-03-01T08:04:28;39.37;;;22.83;;
59062;SDS011;44851;45.648;9.004;2023-03-01T08:06:54;34.97;;;23.23;;
59062;SDS011;44851;45.648;9.004;2023-03-01T08:09:19;38.33;;;23.37;;
59062;SDS011;44851;45.648;9.004;2023-03-01T08:11:46;41.67;;;22.93;;
59062;SDS011;44851;45.648;9.004;2023-03-01T08:14:11;39.27;;;22.83;;
59062;SDS011;44851;45.648;9.004;2023-03-01T08:16:37;36.63;;;21.93;;
59062;SDS011;44851;45.648;9.004;2023-03-01T08:19:06;35.63;;;21.47;;
59062;SDS011;44851;45.648;9.004;2023-03-01T08:21:32;40.00;;;22.47;;
59062;SDS011;44851;45.648;9.004;2023-03-01T08:23:59;35.00;;;21.53;;
59062;SDS011;44851;45.648;9.004;2023-03-01T08:26:26;33.13;;;21.67;;
59062;SDS011;44851;45.648;9.004;2023-03-01T08:28:51;38.97;;;22.73;;
59062;SDS011;44851;45.648;9.004;2023-03-01T08:33:52;35.83;;;23.07;;
59062;SDS011;44851;45.648;9.004;2023-03-01T08:36:23;34.90;;;20.67;;
59062;SDS011;44851;45.648;9.004;2023-03-01T08:38:53;30.37;;;20.87;;
59062;SDS011;44851;45.648;9.004;2023-03-01T08:41:19;30.67;;;20.63;;
59062;SDS011;44851;45.648;9.004;2023-03-01T08:43:44;28.60;;;18.33;;
59062;SDS011;44851;45.648;9.004;2023-03-01T08:46:10;30.00;;;17.80;;
59062;SDS011;44851;45.648;9.004;2023-03-01T08:48:36;27.90;;;17.60;;
59062;SDS011;44851;45.648;9.004;2023-03-01T08:51:08;25.57;;;16.53;;
59062;SDS011;44851;45.648;9.004;2023-03-01T08:53:35;24.73;;;16.23;;
59062;SDS011;44851;45.648;9.004;2023-03-01T08:56:01;25.80;;;15.63;;
59062;SDS011;44851;45.648;9.004;2023-03-01T08:58:28;26.27;;;16.20;;
59062;SDS011;44851;45.648;9.004;2023-03-01T09:00:53;25.93;;;14.80;;
59062;SDS011;44851;45.648;9.004;2023-03-01T09:03:21;21.90;;;12.67;;
59062;SDS011;44851;45.648;9.004;2023-03-01T09:05:47;18.00;;;11.57;;
59062;SDS011;44851;45.648;9.004;2023-03-01T09:08:14;19.60;;;11.23;;
59062;SDS011;44851;45.648;9.004;2023-03-01T09:10:39;14.83;;;10.00;;
59062;SDS011;44851;45.648;9.004;2023-03-01T09:13:05;18.70;;;11.63;;
59062;SDS011;44851;45.648;9.004;2023-03-01T09:15:30;19.57;;;11.03;;
59062;SDS011;44851;45.648;9.004;2023-03-01T09:17:56;19.03;;;11.37;;
59062;SDS011;44851;45.648;9.004;2023-03-01T09:20:21;19.93;;;11.80;;
59062;SDS011;44851;45.648;9.004;2023-03-01T09:22:47;21.47;;;13.37;;
59062;SDS011;44851;45.648;9.004;2023-03-01T09:25:12;25.47;;;14.73;;
59062;SDS011;44851;45.648;9.004;2023-03-01T09:27:37;21.73;;;14.30;;
59062;SDS011;44851;45.648;9.004;2023-03-01T09:30:03;22.27;;;14.67;;
59062;SDS011;44851;45.648;9.004;2023-03-01T09:32:32;24.20;;;13.60;;
59062;SDS011;44851;45.648;9.004;2023-03-01T09:34:57;23.07;;;13.60;;
59062;SDS011;44851;45.648;9.004;2023-03-01T09:37:28;22.33;;;13.70;;
59062;SDS011;44851;45.648;9.004;2023-03-01T09:39:54;22.17;;;13.33;;
59062;SDS011;44851;45.648;9.004;2023-03-01T09:42:19;23.63;;;14.67;;
59062;SDS011;44851;45.648;9.004;2023-03-01T09:44:52;25.23;;;15.73;;
59062;SDS011;44851;45.648;9.004;2023-03-01T09:47:22;26.10;;;15.07;;
59062;SDS011;44851;45.648;9.004;2023-03-01T09:50:14;17.33;;;11.67;;
59062;SDS011;44851;45.648;9.004;2023-03-01T09:55:10;16.83;;;11.30;;
59062;SDS011;44851;45.648;9.004;2023-03-01T09:57:45;19.57;;;12.53;;
59062;SDS011;44851;45.648;9.004;2023-03-01T10:00:17;19.80;;;12.50;;
59062;SDS011;44851;45.648;9.004;2023-03-01T10:03:11;19.83;;;12.47;;
59062;SDS011;44851;45.648;9.004;2023-03-01T10:11:04;18.27;;;11.17;;
59062;SDS011;44851;45.648;9.004;2023-03-01T10:19:12;21.77;;;14.07;;
59062;SDS011;44851;45.648;9.004;2023-03-01T10:21:45;20.23;;;13.33;;
59062;SDS011;44851;45.648;9.004;2023-03-01T10:24:15;21.60;;;13.23;;
59062;SDS011;44851;45.648;9.004;2023-03-01T10:26:57;24.23;;;14.17;;
59062;SDS011;44851;45.648;9.004;2023-03-01T10:29:39;20.40;;;14.27;;
59062;SDS011;44851;45.648;9.004;2023-03-01T10:32:15;20.60;;;13.80;;
59062;SDS011;44851;45.648;9.004;2023-03-01T10:34:43;25.30;;;14.60;;
59062;SDS011;44851;45.648;9.004;2023-03-01T10:39:34;21.13;;;14.73;;
59062;SDS011;44851;45.648;9.004;2023-03-01T10:42:04;21.50;;;14.07;;
59062;SDS011;44851;45.648;9.004;2023-03-01T10:47:12;21.20;;;15.23;;
59062;SDS011;44851;45.648;9.004;2023-03-01T10:49:38;23.27;;;14.50;;
59062;SDS011;44851;45.648;9.004;2023-03-01T10:52:20;21.53;;;13.63;;
59062;SDS011;44851;45.648;9.004;2023-03-01T10:54:52;21.30;;;14.10;;
59062;SDS011;44851;45.648;9.004;2023-03-01T10:57:28;21.80;;;13.53;;
59062;SDS011;44851;45.648;9.004;2023-03-01T11:02:51;19.83;;;13.60;;
59062;SDS011;44851;45.648;9.004;2023-03-01T11:05:28;21.73;;;12.77;;
59062;SDS011;44851;45.648;9.004;2023-03-01T11:07:58;19.90;;;12.50;;
59062;SDS011;44851;45.648;9.004;2023-03-01T11:12:52;20.80;;;13.07;;
59062;SDS011;44851;45.648;9.004;2023-03-01T11:15:20;20.47;;;13.00;;
59062;SDS011;44851;45.648;9.004;2023-03-01T11:17:48;22.20;;;13.90;;
59062;SDS011;44851;45.648;9.004;2023-03-01T11:20:20;22.37;;;14.10;;
59062;SDS011;44851;45.648;9.004;2023-03-01T11:22:54;21.50;;;13.30;;
59062;SDS011;44851;45.648;9.004;2023-03-01T11:25:27;21.77;;;13.17;;
59062;SDS011;44851;45.648;9.004;2023-03-01T11:27:58;23.13;;;14.97;;
59062;SDS011;44851;45.648;9.004;2023-03-01T11:30:40;20.60;;;12.77;;
59062;SDS011;44851;45.648;9.004;2023-03-01T11:35:46;22.43;;;13.03;;
59062;SDS011;44851;45.648;9.004;2023-03-01T11:38:25;20.63;;;13.13;;
59062;SDS011;44851;45.648;9.004;2023-03-01T12:00:38;22.13;;;13.67;;
59062;SDS011;44851;45.648;9.004;2023-03-01T12:08:40;18.43;;;12.70;;
59062;SDS011;44851;45.648;9.004;2023-03-01T12:16:22;19.00;;;12.37;;
59062;SDS011;44851;45.648;9.004;2023-03-01T12:21:39;21.87;;;12.80;;
59062;SDS011;44851;45.648;9.004;2023-03-01T12:27:18;23.00;;;12.83;;
59062;SDS011;44851;45.648;9.004;2023-03-01T12:35:25;20.27;;;12.00;;
59062;SDS011;44851;45.648;9.004;2023-03-01T12:40:29;19.73;;;12.40;;
59062;SDS011;44851;45.648;9.004;2023-03-01T12:43:22;20.57;;;12.30;;
59062;SDS011;44851;45.648;9.004;2023-03-01T12:51:17;18.43;;;11.97;;
59062;SDS011;44851;45.648;9.004;2023-03-01T12:53:49;18.63;;;11.80;;
59062;SDS011;44851;45.648;9.004;2023-03-01T12:56:24;17.77;;;11.10;;
59062;SDS011;44851;45.648;9.004;2023-03-01T13:05:45;19.43;;;12.20;;
59062;SDS011;44851;45.648;9.004;2023-03-01T13:08:16;19.47;;;12.70;;
59062;SDS011;44851;45.648;9.004;2023-03-01T13:10:49;22.30;;;12.63;;
59062;SDS011;44851;45.648;9.004;2023-03-01T13:13:22;15.90;;;10.93;;
59062;SDS011;44851;45.648;9.004;2023-03-01T13:15:49;24.53;;;12.43;;
59062;SDS011;44851;45.648;9.004;2023-03-01T13:31:03;21.77;;;13.00;;
59062;SDS011;44851;45.648;9.004;2023-03-01T13:35:56;19.97;;;12.97;;
59062;SDS011;44851;45.648;9.004;2023-03-01T13:38:44;27.80;;;17.30;;
59062;SDS011;44851;45.648;9.004;2023-03-01T13:41:10;26.23;;;19.40;;
59062;SDS011;44851;45.648;9.004;2023-03-01T13:43:38;20.00;;;12.63;;
59062;SDS011;44851;45.648;9.004;2023-03-01T13:46:23;21.73;;;13.77;;
59062;SDS011;44851;45.648;9.004;2023-03-01T13:48:53;21.80;;;13.63;;
59062;SDS011;44851;45.648;9.004;2023-03-01T13:51:23;20.43;;;12.90;;
59062;SDS011;44851;45.648;9.004;2023-03-01T13:53:51;22.67;;;14.53;;
59062;SDS011;44851;45.648;9.004;2023-03-01T13:56:20;22.50;;;13.63;;
59062;SDS011;44851;45.648;9.004;2023-03-01T13:58:55;24.03;;;14.53;;
59062;SDS011;44851;45.648;9.004;2023-03-01T14:03:50;25.70;;;13.87;;
59062;SDS011;44851;45.648;9.004;2023-03-01T14:06:16;23.17;;;14.90;;
59062;SDS011;44851;45.648;9.004;2023-03-01T14:08:45;20.93;;;13.67;;
59062;SDS011;44851;45.648;9.004;2023-03-01T14:21:45;21.30;;;13.40;;
59062;SDS011;44851;45.648;9.004;2023-03-01T14:24:18;24.37;;;13.70;;
59062;SDS011;44851;45.648;9.004;2023-03-01T14:26:46;24.00;;;13.73;;
59062;SDS011;44851;45.648;9.004;2023-03-01T14:32:11;23.27;;;12.83;;
59062;SDS011;44851;45.648;9.004;2023-03-01T14:34:44;23.83;;;16.27;;
59062;SDS011;44851;45.648;9.004;2023-03-01T14:37:21;23.60;;;14.87;;
59062;SDS011;44851;45.648;9.004;2023-03-01T14:39:47;24.43;;;16.60;;
59062;SDS011;44851;45.648;9.004;2023-03-01T14:42:14;22.90;;;13.53;;
59062;SDS011;44851;45.648;9.004;2023-03-01T14:44:44;25.30;;;13.90;;
59062;SDS011;44851;45.648;9.004;2023-03-01T14:47:12;23.03;;;13.67;;
59062;SDS011;44851;45.648;9.004;2023-03-01T14:49:40;22.43;;;13.67;;
59062;SDS011;44851;45.648;9.004;2023-03-01T14:52:17;22.67;;;14.37;;
59062;SDS011;44851;45.648;9.004;2023-03-01T14:54:47;23.00;;;14.10;;
59062;SDS011;44851;45.648;9.004;2023-03-01T14:57:16;24.53;;;13.90;;
59062;SDS011;44851;45.648;9.004;2023-03-01T14:59:42;22.17;;;13.80;;
59062;SDS011;44851;45.648;9.004;2023-03-01T15:02:11;23.43;;;15.03;;
59062;SDS011;44851;45.648;9.004;2023-03-01T15:04:42;21.67;;;14.27;;
59062;SDS011;44851;45.648;9.004;2023-03-01T15:07:12;24.60;;;14.37;;
59062;SDS011;44851;45.648;9.004;2023-03-01T15:09:39;25.07;;;14.50;;
59062;SDS011;44851;45.648;9.004;2023-03-01T15:14:53;21.50;;;14.13;;
59062;SDS011;44851;45.648;9.004;2023-03-01T15:17:35;20.73;;;13.70;;
59062;SDS011;44851;45.648;9.004;2023-03-01T15:20:04;23.83;;;14.83;;
59062;SDS011;44851;45.648;9.004;2023-03-01T15:22:32;22.17;;;13.93;;
59062;SDS011;44851;45.648;9.004;2023-03-01T15:24:58;24.93;;;14.53;;
59062;SDS011;44851;45.648;9.004;2023-03-01T15:27:24;27.10;;;13.57;;
59062;SDS011;44851;45.648;9.004;2023-03-01T15:29:53;20.37;;;13.53;;
59062;SDS011;44851;45.648;9.004;2023-03-01T15:32:31;25.30;;;15.00;;
59062;SDS011;44851;45.648;9.004;2023-03-01T15:34:59;20.93;;;13.03;;
59062;SDS011;44851;45.648;9.004;2023-03-01T15:40:25;22.97;;;14.83;;
59062;SDS011;44851;45.648;9.004;2023-03-01T15:42:59;21.90;;;13.33;;
59062;SDS011;44851;45.648;9.004;2023-03-01T15:45:27;26.10;;;14.77;;
59062;SDS011;44851;45.648;9.004;2023-03-01T15:47:58;24.07;;;15.23;;
59062;SDS011;44851;45.648;9.004;2023-03-01T15:50:29;24.87;;;14.60;;
59062;SDS011;44851;45.648;9.004;2023-03-01T15:53:00;25.27;;;14.47;;
59062;SDS011;44851;45.648;9.004;2023-03-01T15:55:29;22.13;;;13.40;;
59062;SDS011;44851;45.648;9.004;2023-03-01T15:58:20;23.33;;;14.97;;
59062;SDS011;44851;45.648;9.004;2023-03-01T16:00:48;25.90;;;14.70;;
59062;SDS011;44851;45.648;9.004;2023-03-01T16:03:16;26.43;;;15.87;;
59062;SDS011;44851;45.648;9.004;2023-03-01T16:05:46;25.50;;;14.50;;
59062;SDS011;44851;45.648;9.004;2023-03-01T16:08:13;25.70;;;15.17;;
59062;SDS011;44851;45.648;9.004;2023-03-01T16:10:39;25.70;;;15.63;;
59062;SDS011;44851;45.648;9.004;2023-03-01T16:13:05;28.57;;;15.40;;
59062;SDS011;44851;45.648;9.004;2023-03-01T16:15:31;33.87;;;15.13;;
59062;SDS011;44851;45.648;9.004;2023-03-01T16:18:03;25.10;;;15.33;;
59062;SDS011;44851;45.648;9.004;2023-03-01T16:20:30;24.77;;;15.10;;
59062;SDS011;44851;45.648;9.004;2023-03-01T16:22:58;25.80;;;14.33;;
59062;SDS011;44851;45.648;9.004;2023-03-01T16:25:28;23.13;;;14.10;;
59062;SDS011;44851;45.648;9.004;2023-03-01T16:27:54;24.50;;;13.77;;
59062;SDS011;44851;45.648;9.004;2023-03-01T16:30:21;25.70;;;14.43;;
59062;SDS011;44851;45.648;9.004;2023-03-01T16:32:48;26.27;;;14.70;;
59062;SDS011;44851;45.648;9.004;2023-03-01T16:35:15;23.23;;;13.50;;
59062;SDS011;44851;45.648;9.004;2023-03-01T16:37:42;24.90;;;14.20;;
59062;SDS011;44851;45.648;9.004;2023-03-01T16:40:17;23.73;;;13.53;;